createdAt,value
2023-03-26T00:00:54.267Z,0.10
2023-03-26T00:03:57.422Z,0.10
2023-03-26T00:07:00.149Z,0.00
2023-03-26T00:10:02.238Z,0.10
2023-03-26T00:13:05.928Z,0.10
2023-03-26T00:16:08.242Z,0.10
2023-03-26T00:19:11.741Z,0.10
2023-03-26T00:22:14.329Z,0.10
2023-03-26T00:25:16.613Z,0.10
2023-03-26T00:28:21.575Z,0.10
2023-03-26T00:31:23.819Z,0.20
2023-03-26T00:34:26.801Z,0.03
2023-03-26T00:37:28.868Z,0.20
2023-03-26T00:40:32.104Z,0.10
2023-03-26T00:43:35.872Z,0.10
2023-03-26T00:46:37.995Z,0.10
2023-03-26T00:49:40.088Z,0.10
2023-03-26T00:52:44.101Z,0.10
2023-03-26T00:55:47.767Z,0.10
2023-03-26T00:58:50.547Z,0.10
2023-03-26T01:01:55.015Z,0.10
2023-03-26T01:05:02.762Z,0.10
2023-03-26T01:08:16.388Z,0.10
2023-03-26T01:11:25.619Z,0.10
2023-03-26T01:14:29.759Z,0.20
2023-03-26T01:17:33.987Z,0.10
2023-03-26T01:20:46.898Z,0.10
2023-03-26T01:24:08.347Z,0.10
2023-03-26T01:27:29.235Z,0.20
2023-03-26T01:30:51.880Z,0.10
2023-03-26T01:34:12.453Z,0.10
2023-03-26T01:38:02.586Z,0.10
2023-03-26T01:41:09.683Z,0.10
2023-03-26T01:44:18.458Z,0.10
2023-03-26T01:47:21.438Z,0.10
2023-03-26T01:50:24.032Z,0.10
2023-03-26T01:53:26.848Z,0.10
2023-03-26T01:57:05.602Z,0.10
2023-03-26T02:00:28.347Z,0.10
2023-03-26T02:03:37.398Z,0.10
2023-03-26T02:06:45.800Z,0.10
2023-03-26T02:09:52.710Z,0.30
2023-03-26T02:12:55.233Z,0.10
2023-03-26T02:15:58.596Z,0.05
2023-03-26T02:19:00.627Z,0.10
2023-03-26T02:22:03.046Z,0.10
2023-03-26T02:25:13.191Z,0.10
2023-03-26T02:28:17.037Z,0.10
2023-03-26T02:31:19.493Z,0.10
2023-03-26T02:34:21.633Z,0.10
2023-03-26T02:37:30.398Z,0.20
2023-03-26T02:40:41.674Z,0.10
2023-03-26T02:43:44.084Z,0.10
2023-03-26T02:46:50.424Z,0.30
2023-03-26T02:50:20.072Z,0.68
2023-03-26T02:53:47.472Z,0.20
2023-03-26T02:57:07.863Z,0.10
2023-03-26T03:00:16.781Z,0.10
2023-03-26T03:03:26.053Z,0.10
2023-03-26T03:06:57.687Z,0.00
2023-03-26T03:10:02.747Z,0.10
2023-03-26T03:13:35.522Z,0.25
2023-03-26T03:16:37.433Z,0.30
2023-03-26T03:19:45.326Z,0.05
2023-03-26T03:22:47.480Z,0.20
2023-03-26T03:25:50.904Z,0.20
2023-03-26T03:28:54.616Z,0.10
2023-03-26T03:31:56.710Z,0.10
2023-03-26T03:35:11.738Z,0.10
2023-03-26T03:38:17.390Z,0.10
2023-03-26T03:41:23.147Z,0.10
2023-03-26T03:44:25.370Z,0.20
2023-03-26T03:47:27.965Z,0.17
2023-03-26T03:50:32.611Z,0.00
2023-03-26T03:53:59.276Z,0.10
2023-03-26T03:57:21.981Z,0.25
2023-03-26T04:00:33.298Z,0.20
2023-03-26T04:03:55.416Z,0.55
2023-03-26T04:07:01.122Z,0.22
2023-03-26T04:10:23.481Z,0.20
2023-03-26T04:13:48.454Z,0.22
2023-03-26T04:17:22.213Z,0.30
2023-03-26T04:20:25.460Z,0.10
2023-03-26T04:23:29.332Z,0.70
2023-03-26T04:26:41.184Z,0.35
2023-03-26T04:29:50.318Z,0.40
2023-03-26T04:32:58.635Z,0.10
2023-03-26T04:36:03.229Z,0.10
2023-03-26T04:39:11.685Z,0.10
2023-03-26T04:42:33.559Z,0.73
2023-03-26T04:45:53.347Z,0.82
2023-03-26T04:48:57.369Z,0.50
2023-03-26T04:52:00.142Z,0.20
2023-03-26T04:55:34.343Z,0.10
2023-03-26T04:58:43.825Z,0.30
2023-03-26T05:01:46.622Z,0.40
2023-03-26T05:04:53.608Z,0.23
2023-03-26T05:07:57.120Z,0.43
2023-03-26T05:10:59.168Z,0.10
2023-03-26T05:14:10.421Z,0.43
2023-03-26T05:17:14.993Z,0.13
2023-03-26T05:20:24.633Z,0.10
2023-03-26T05:23:27.024Z,0.13
2023-03-26T05:26:41.022Z,0.20
2023-03-26T05:29:43.852Z,1.00
2023-03-26T05:32:48.906Z,0.65
2023-03-26T05:36:09.571Z,0.50
2023-03-26T05:39:14.320Z,0.30
2023-03-26T05:42:42.903Z,0.60
2023-03-26T05:46:09.725Z,0.30
2023-03-26T05:49:12.739Z,0.47
2023-03-26T05:52:18.993Z,0.20
2023-03-26T05:55:45.897Z,0.50
2023-03-26T05:59:06.934Z,0.20
2023-03-26T06:02:37.843Z,0.38
2023-03-26T06:06:10.317Z,0.38
2023-03-26T06:09:21.802Z,0.23
2023-03-26T06:12:24.061Z,0.52
2023-03-26T06:15:26.118Z,0.43
2023-03-26T06:18:50.283Z,0.10
2023-03-26T06:22:21.959Z,0.52
2023-03-26T06:25:45.716Z,0.10
2023-03-26T06:29:09.216Z,0.10
2023-03-26T06:32:23.326Z,0.10
2023-03-26T06:35:33.149Z,0.10
2023-03-26T06:38:35.486Z,0.28
2023-03-26T06:41:40.434Z,0.10
2023-03-26T06:45:11.653Z,0.25
2023-03-26T06:48:48.793Z,0.10
2023-03-26T06:52:13.659Z,0.20
2023-03-26T06:55:35.663Z,0.20
2023-03-26T06:59:00.271Z,0.30
2023-03-26T07:02:20.955Z,0.45
2023-03-26T07:05:43.193Z,0.10
2023-03-26T07:08:45.248Z,0.30
2023-03-26T07:12:13.347Z,0.10
2023-03-26T07:15:17.987Z,0.10
2023-03-26T07:18:34.468Z,0.13
2023-03-26T07:21:38.669Z,1.03
2023-03-26T07:24:56.226Z,0.10
2023-03-26T07:29:03.857Z,0.30
2023-03-26T07:32:54.634Z,0.10
2023-03-26T07:36:39.135Z,0.30
2023-03-26T07:40:37.768Z,0.30
2023-03-26T07:44:35.914Z,0.10
2023-03-26T07:47:57.101Z,0.20
2023-03-26T07:51:18.807Z,0.25
2023-03-26T07:54:41.096Z,0.17
2023-03-26T07:58:23.372Z,0.10
2023-03-26T08:02:13.174Z,0.10
2023-03-26T08:05:30.530Z,0.20
2023-03-26T08:09:17.244Z,0.35
2023-03-26T08:13:19.067Z,0.10
2023-03-26T08:16:26.815Z,0.28
2023-03-26T08:19:28.755Z,0.30
2023-03-26T08:22:50.858Z,0.30
2023-03-26T08:26:02.525Z,0.20
2023-03-26T08:29:16.219Z,0.30
2023-03-26T08:32:20.167Z,0.20
2023-03-26T08:35:22.726Z,0.20
2023-03-26T08:38:24.732Z,0.17
2023-03-26T08:41:29.910Z,0.30
2023-03-26T08:45:07.071Z,0.10
2023-03-26T08:48:36.111Z,0.20
2023-03-26T08:51:50.450Z,0.10
2023-03-26T08:55:11.063Z,0.10
2023-03-26T08:58:57.302Z,0.20
2023-03-26T09:02:32.246Z,0.20
2023-03-26T09:05:43.457Z,0.10
2023-03-26T09:09:26.584Z,0.10
2023-03-26T09:12:56.325Z,0.25
2023-03-26T09:16:22.310Z,0.10
2023-03-26T09:19:49.225Z,0.33
2023-03-26T09:23:15.445Z,0.30
2023-03-26T09:26:46.414Z,0.20
2023-03-26T09:30:17.044Z,0.20
2023-03-26T09:34:06.683Z,0.40
2023-03-26T09:37:21.236Z,0.20
2023-03-26T09:40:38.751Z,0.10
2023-03-26T09:44:18.097Z,0.30
2023-03-26T09:47:34.887Z,0.20
2023-03-26T09:51:31.682Z,0.20
2023-03-26T09:55:01.395Z,0.30
2023-03-26T09:58:21.960Z,0.17
2023-03-26T10:01:57.554Z,0.52
2023-03-26T10:05:24.340Z,0.20
2023-03-26T10:08:48.479Z,0.20
2023-03-26T10:11:56.700Z,0.20
2023-03-26T10:15:26.705Z,0.50
2023-03-26T10:18:51.188Z,0.40
2023-03-26T10:22:09.787Z,0.10
2023-03-26T10:25:39.144Z,0.20
2023-03-26T10:29:05.925Z,0.33
2023-03-26T10:32:17.165Z,0.40
2023-03-26T10:35:59.824Z,0.20
2023-03-26T10:39:37.666Z,0.45
2023-03-26T10:43:03.216Z,0.40
2023-03-26T10:46:14.282Z,0.33
2023-03-26T10:49:49.903Z,0.20
2023-03-26T10:53:04.406Z,0.20
2023-03-26T10:56:25.805Z,0.30
2023-03-26T10:59:27.831Z,0.35
2023-03-26T11:02:44.586Z,0.20
2023-03-26T11:06:04.355Z,0.20
2023-03-26T11:09:10.167Z,0.20
2023-03-26T11:12:43.198Z,0.20
2023-03-26T11:16:06.778Z,0.20
2023-03-26T11:19:41.030Z,0.20
2023-03-26T11:23:05.952Z,0.20
2023-03-26T11:26:15.602Z,0.43
2023-03-26T11:29:34.036Z,0.47
2023-03-26T11:32:53.003Z,0.30
2023-03-26T11:35:58.400Z,0.13
2023-03-26T11:39:04.142Z,0.28
2023-03-26T11:42:11.329Z,0.20
2023-03-26T11:45:24.145Z,0.10
2023-03-26T11:48:32.172Z,0.20
2023-03-26T11:51:36.889Z,0.20
2023-03-26T11:54:39.345Z,0.38
2023-03-26T11:57:50.205Z,0.40
2023-03-26T12:00:54.852Z,0.30
2023-03-26T12:04:11.216Z,0.25
2023-03-26T12:07:21.926Z,0.20
2023-03-26T12:10:28.991Z,0.47
2023-03-26T12:13:52.369Z,0.38
2023-03-26T12:17:11.857Z,0.45
2023-03-26T12:20:25.559Z,0.30
2023-03-26T12:23:37.626Z,0.20
2023-03-26T12:26:42.468Z,0.20
2023-03-26T12:29:44.449Z,0.52
2023-03-26T12:32:48.920Z,0.40
2023-03-26T12:35:58.314Z,0.13
2023-03-26T12:40:07.133Z,0.10
2023-03-26T12:44:55.726Z,0.20
2023-03-26T12:47:55.324Z,0.30
2023-03-26T12:49:22.403Z,0.20
2023-03-26T12:52:52.332Z,0.30
2023-03-26T12:56:22.121Z,0.20
2023-03-26T12:59:32.337Z,0.57
2023-03-26T13:03:01.726Z,0.20
2023-03-26T13:06:09.175Z,0.30
2023-03-26T13:09:27.722Z,0.32
2023-03-26T13:12:48.404Z,0.50
2023-03-26T13:16:01.164Z,0.20
2023-03-26T13:19:28.844Z,0.20
2023-03-26T13:22:49.161Z,0.20
2023-03-26T13:26:23.437Z,0.30
2023-03-26T13:29:34.129Z,0.17
2023-03-26T13:32:57.427Z,0.30
2023-03-26T13:36:22.618Z,0.25
2023-03-26T13:39:36.130Z,0.20
2023-03-26T13:43:02.032Z,0.40
2023-03-26T13:46:38.476Z,0.50
2023-03-26T13:49:54.474Z,0.30
2023-03-26T13:53:04.502Z,0.47
2023-03-26T13:56:09.902Z,0.43
2023-03-26T13:59:18.230Z,0.38
2023-03-26T14:02:30.655Z,0.50
2023-03-26T14:05:41.769Z,0.40
2023-03-26T14:08:50.093Z,0.30
2023-03-26T14:11:58.068Z,0.30
2023-03-26T14:15:11.140Z,0.50
2023-03-26T14:18:41.561Z,0.30
2023-03-26T14:22:11.986Z,0.30
2023-03-26T14:25:22.081Z,0.10
2023-03-26T14:28:24.051Z,0.10
2023-03-26T14:32:04.211Z,0.20
2023-03-26T14:35:37.576Z,0.30
2023-03-26T14:39:10.786Z,0.30
2023-03-26T14:42:23.212Z,0.40
2023-03-26T14:45:53.619Z,0.20
2023-03-26T14:49:03.002Z,0.20
2023-03-26T14:52:20.669Z,0.27
2023-03-26T14:55:28.385Z,0.90
2023-03-26T14:58:49.593Z,0.52
2023-03-26T15:02:04.052Z,0.40
2023-03-26T15:05:43.218Z,0.43
2023-03-26T15:09:07.183Z,0.17
2023-03-26T15:13:06.395Z,0.10
2023-03-26T15:16:31.399Z,0.28
2023-03-26T15:20:11.194Z,0.30
2023-03-26T15:23:52.131Z,0.70
2023-03-26T15:27:06.346Z,0.47
2023-03-26T15:30:12.561Z,0.30
2023-03-26T15:33:53.543Z,0.28
2023-03-26T15:37:10.905Z,0.10
2023-03-26T15:40:40.424Z,0.57
2023-03-26T15:47:18.093Z,0.20
2023-03-26T15:50:31.702Z,0.20
2023-03-26T15:54:00.201Z,0.35
2023-03-26T15:57:32.578Z,0.77
2023-03-26T16:00:47.850Z,0.10
2023-03-26T16:04:16.744Z,0.60
2023-03-26T16:07:53.998Z,0.50
2023-03-26T16:10:59.031Z,0.10
2023-03-26T16:14:23.716Z,0.25
2023-03-26T16:17:26.506Z,0.30
2023-03-26T16:20:35.682Z,0.20
2023-03-26T16:23:47.505Z,0.25
2023-03-26T16:27:08.091Z,0.15
2023-03-26T16:30:26.423Z,0.20
2023-03-26T16:33:39.438Z,0.70
2023-03-26T16:36:51.460Z,6.90
2023-03-26T16:39:54.162Z,5.32
2023-03-26T16:43:05.019Z,3.65
2023-03-26T16:46:31.833Z,2.10
2023-03-26T16:50:08.542Z,0.53
2023-03-26T16:53:29.977Z,0.30
2023-03-26T16:57:22.675Z,0.70
2023-03-26T17:00:42.409Z,0.22
2023-03-26T17:04:05.154Z,0.68
2023-03-26T17:07:21.844Z,0.83
2023-03-26T17:10:46.459Z,1.02
2023-03-26T17:14:07.514Z,1.00
2023-03-26T17:17:32.492Z,0.93
2023-03-26T17:20:38.251Z,0.65
2023-03-26T17:24:00.957Z,0.43
2023-03-26T17:27:28.203Z,0.30
2023-03-26T17:31:03.311Z,0.80
2023-03-26T17:34:33.925Z,0.55
2023-03-26T17:37:43.368Z,0.22
2023-03-26T17:40:49.867Z,0.50
2023-03-26T17:43:52.780Z,0.43
2023-03-26T17:46:57.086Z,0.88
2023-03-26T17:50:10.713Z,1.65
2023-03-26T17:53:22.727Z,1.75
2023-03-26T17:56:29.437Z,2.10
2023-03-26T17:59:32.836Z,3.42
2023-03-26T18:02:41.412Z,4.53
2023-03-26T18:05:43.774Z,3.05
2023-03-26T18:09:23.090Z,2.42
2023-03-26T18:12:51.689Z,3.17
2023-03-26T18:16:18.627Z,3.15
2023-03-26T18:19:23.009Z,2.88
2023-03-26T18:22:29.956Z,3.83
2023-03-26T18:25:34.165Z,2.67
2023-03-26T18:28:41.967Z,2.20
2023-03-26T18:31:45.238Z,0.80
2023-03-26T18:34:56.915Z,1.38
2023-03-26T18:38:00.012Z,1.05
2023-03-26T18:41:03.100Z,1.00
2023-03-26T18:44:07.892Z,0.73
2023-03-26T18:47:11.846Z,1.10
2023-03-26T18:50:17.751Z,0.80
2023-03-26T18:53:23.434Z,0.70
2023-03-26T18:56:40.922Z,1.30
2023-03-26T18:59:45.415Z,0.87
2023-03-26T19:02:49.933Z,1.85
2023-03-26T19:05:56.574Z,1.05
2023-03-26T19:08:58.959Z,1.08
2023-03-26T19:12:07.375Z,1.52
2023-03-26T19:15:20.025Z,2.40
2023-03-26T19:18:25.436Z,1.95
2023-03-26T19:21:27.542Z,1.60
2023-03-26T19:24:29.776Z,0.82
2023-03-26T19:27:32.044Z,0.73
2023-03-26T19:30:39.447Z,1.47
2023-03-26T19:33:43.747Z,0.77
2023-03-26T19:37:01.519Z,1.30
2023-03-26T19:40:18.846Z,0.98
2023-03-26T19:43:22.145Z,1.33
2023-03-26T19:46:26.304Z,0.67
2023-03-26T19:49:32.597Z,0.82
2023-03-26T19:52:38.376Z,0.70
2023-03-26T19:55:41.936Z,1.00
2023-03-26T19:58:44.888Z,1.17
2023-03-26T20:01:46.959Z,0.70
2023-03-26T20:04:48.996Z,0.40
2023-03-26T20:07:51.962Z,0.43
2023-03-26T20:10:57.035Z,0.50
2023-03-26T20:14:01.093Z,0.75
2023-03-26T20:17:03.652Z,0.63
2023-03-26T20:20:11.795Z,1.63
2023-03-26T20:23:17.659Z,1.00
2023-03-26T20:26:21.220Z,0.20
2023-03-26T20:29:23.608Z,0.35
2023-03-26T20:32:27.382Z,0.70
2023-03-26T20:35:36.117Z,0.43
2023-03-26T20:38:40.046Z,0.35
2023-03-26T20:41:47.589Z,0.95
2023-03-26T20:44:49.538Z,2.13
2023-03-26T20:47:51.575Z,0.83
2023-03-26T20:50:54.144Z,0.40
2023-03-26T20:53:56.538Z,0.93
2023-03-26T20:56:58.715Z,0.85
2023-03-26T21:00:00.955Z,1.33
2023-03-26T21:03:03.056Z,1.30
2023-03-26T21:06:10.437Z,0.40
2023-03-26T21:09:18.287Z,0.63
2023-03-26T21:12:41.207Z,0.75
2023-03-26T21:15:43.709Z,0.77
2023-03-26T21:18:46.062Z,0.53
2023-03-26T21:21:59.030Z,3.72
2023-03-26T21:25:15.332Z,1.33
2023-03-26T21:28:32.240Z,0.38
2023-03-26T21:31:43.920Z,0.43
2023-03-26T21:34:55.497Z,0.30
2023-03-26T21:38:01.579Z,0.10
2023-03-26T21:41:04.388Z,0.20
2023-03-26T21:44:07.465Z,0.30
2023-03-26T21:47:10.100Z,0.15
2023-03-26T21:50:19.046Z,0.20
2023-03-26T21:53:22.377Z,0.20
2023-03-26T21:57:03.906Z,0.70
2023-03-26T22:00:11.566Z,0.65
2023-03-26T22:03:28.808Z,0.22
2023-03-26T22:06:43.365Z,0.60
2023-03-26T22:09:45.769Z,0.20
2023-03-26T22:12:48.284Z,0.20
2023-03-26T22:15:50.930Z,0.28
2023-03-26T22:18:53.628Z,0.28
2023-03-26T22:21:55.650Z,0.57
2023-03-26T22:24:57.760Z,0.40
2023-03-26T22:27:59.809Z,0.50
2023-03-26T22:31:08.879Z,0.13
2023-03-26T22:34:11.708Z,0.20
2023-03-26T22:37:13.666Z,0.30
2023-03-26T22:40:16.171Z,0.40
2023-03-26T22:43:18.590Z,0.47
2023-03-26T22:46:22.037Z,0.30
2023-03-26T22:49:27.404Z,0.10
2023-03-26T22:52:30.592Z,0.70
2023-03-26T22:55:32.992Z,0.43
2023-03-26T22:58:35.059Z,0.25
2023-03-26T23:01:37.591Z,0.65
2023-03-26T23:04:39.820Z,0.30
2023-03-26T23:07:42.587Z,0.20
2023-03-26T23:10:45.562Z,0.10
2023-03-26T23:13:47.972Z,0.35
2023-03-26T23:16:50.623Z,0.20
2023-03-26T23:19:52.594Z,0.20
2023-03-26T23:22:54.856Z,0.28
2023-03-26T23:25:58.959Z,0.28
2023-03-26T23:29:02.260Z,0.13
2023-03-26T23:32:23.567Z,0.20
2023-03-26T23:35:26.928Z,0.73
2023-03-26T23:38:43.711Z,0.40
2023-03-26T23:41:46.578Z,0.20
2023-03-26T23:44:48.551Z,0.10
2023-03-26T23:47:50.556Z,0.20
2023-03-26T23:51:03.290Z,0.17
2023-03-26T23:54:08.690Z,0.30
2023-03-26T23:57:10.956Z,0.35
